Time;durP1;ratioP1;P1;durP2;ratioP2;P2;SDS_P1;SDS_P2;PMS_P1;PMS_P2;Temp;Humidity;BMP_temperature;BMP_pressure;BME280_temperature;BME280_humidity;BME280_pressure;Samples;Min_cycle;Max_cycle;Signal;HPM_P1;HPM_P2
2022/10/13 00:01:18;;;;;;;63.45;39.13;;;435.70;2355.20;;;;;;5003405;28;20479;-76
2022/10/13 00:03:46;;;;;;;58.25;39.38;;;435.50;2355.20;;;;;;5021354;28;20054;-77
2022/10/13 00:06:13;;;;;;;54.53;37.63;;;435.50;2355.20;;;;;;5024794;28;20014;-79
2022/10/13 00:08:42;;;;;;;60.65;37.92;;;435.50;2355.20;;;;;;5020267;28;20037;-79
2022/10/13 00:11:20;;;;;;;69.55;40.20;;;435.50;2355.20;;;;;;5014795;28;20037;-79
2022/10/13 00:13:47;;;;;;;61.08;41.28;;;435.50;2355.20;;;;;;5017751;28;20610;-78
2022/10/13 00:16:15;;;;;;;57.75;37.60;;;435.40;2355.20;;;;;;5007679;28;20048;-79
2022/10/13 00:18:41;;;;;;;57.85;38.03;;;435.50;2355.20;;;;;;5005806;28;20052;-80
2022/10/13 00:21:10;;;;;;;59.67;39.08;;;435.50;2355.20;;;;;;5025203;28;20017;-77
2022/10/13 00:23:36;;;;;;;63.63;39.80;;;435.40;2355.20;;;;;;5019920;28;20483;-79
2022/10/13 00:26:04;;;;;;;71.60;43.55;;;435.40;2355.20;;;;;;5014854;28;20104;-79
2022/10/13 00:28:30;;;;;;;57.72;40.70;;;435.40;2355.20;;;;;;5019933;28;20017;-79
2022/10/13 00:30:56;;;;;;;61.10;40.70;;;435.40;2355.20;;;;;;4997082;28;20030;-77
2022/10/13 00:33:21;;;;;;;62.38;40.80;;;435.30;2355.20;;;;;;5014731;28;20053;-77
2022/10/13 00:35:48;;;;;;;62.22;41.08;;;435.40;2355.20;;;;;;5003005;28;20462;-77
2022/10/13 00:38:15;;;;;;;63.40;40.00;;;435.40;2355.20;;;;;;5000563;28;20030;-78
2022/10/13 00:40:53;;;;;;;66.22;43.17;;;435.40;2355.20;;;;;;5024824;28;20472;-78
2022/10/13 00:43:21;;;;;;;58.13;40.20;;;435.30;2355.20;;;;;;5013469;28;20033;-79
2022/10/13 00:45:51;;;;;;;60.10;40.95;;;435.30;2355.20;;;;;;5022768;28;20017;-77
2022/10/13 00:48:27;;;;;;;59.58;40.00;;;435.30;2355.20;;;;;;5030905;28;20048;-78
2022/10/13 00:50:53;;;;;;;65.30;41.50;;;435.30;2355.20;;;;;;5016092;28;20093;-78
2022/10/13 00:53:22;;;;;;;61.28;41.08;;;435.20;2355.20;;;;;;5012640;28;20037;-79
2022/10/13 00:55:50;;;;;;;65.50;41.33;;;435.20;2355.20;;;;;;4999498;28;20024;-78
2022/10/13 00:58:18;;;;;;;58.85;39.85;;;410.50;2355.20;;;;;;5018954;28;20133;-79
2022/10/13 01:00:49;;;;;;;72.13;41.85;;;410.50;2355.20;;;;;;5020363;28;20032;-80
2022/10/13 01:03:18;;;;;;;54.40;39.80;;;410.50;2355.20;;;;;;5029892;28;20056;-78
2022/10/13 01:05:44;;;;;;;57.17;39.50;;;410.50;2355.20;;;;;;5023573;28;20105;-79
2022/10/13 01:08:11;;;;;;;67.97;39.95;;;410.50;2355.20;;;;;;5022547;28;20021;-77
2022/10/13 01:11:03;;;;;;;64.63;41.30;;;435.20;2355.20;;;;;;4995358;28;20586;-77
2022/10/13 01:13:45;;;;;;;62.72;39.60;;;435.20;2355.20;;;;;;4995942;28;20026;-77
2022/10/13 01:16:39;;;;;;;62.17;39.58;;;435.20;2355.20;;;;;;5019990;28;20018;-77
2022/10/13 01:19:20;;;;;;;57.67;40.05;;;435.20;2355.20;;;;;;5020676;28;20021;-77
2022/10/13 01:21:54;;;;;;;63.08;40.33;;;410.50;2355.20;;;;;;5012155;28;20010;-79
2022/10/13 01:24:50;;;;;;;58.08;39.85;;;410.50;2355.20;;;;;;5012230;28;20057;-76
2022/10/13 01:27:30;;;;;;;56.47;39.85;;;410.50;2355.20;;;;;;5010879;28;20025;-77
2022/10/13 01:30:20;;;;;;;60.75;40.13;;;410.50;2355.20;;;;;;5017708;28;20024;-77
2022/10/13 01:33:24;;;;;;;61.67;39.83;;;435.20;2355.20;;;;;;5017328;28;20093;-80
2022/10/13 01:36:04;;;;;;;59.00;39.22;;;435.20;2355.20;;;;;;5014728;28;20064;-78
2022/10/13 01:38:55;;;;;;;53.80;37.80;;;435.20;2355.20;;;;;;5021658;28;20022;-80
2022/10/13 01:41:38;;;;;;;54.22;36.60;;;410.50;2355.20;;;;;;4999355;28;20025;-77
2022/10/13 01:44:25;;;;;;;56.00;37.30;;;410.50;2355.20;;;;;;4996709;28;20037;-76
2022/10/13 01:46:52;;;;;;;56.30;38.78;;;410.50;2355.20;;;;;;5017525;28;20021;-77
2022/10/13 01:49:22;;;;;;;69.82;40.20;;;435.20;2355.20;;;;;;5019914;28;20026;-79
2022/10/13 01:51:48;;;;;;;61.00;37.83;;;435.20;2355.20;;;;;;5014474;28;20018;-79
2022/10/13 01:54:14;;;;;;;56.55;38.00;;;410.50;2355.20;;;;;;5014610;28;20526;-78
2022/10/13 01:56:40;;;;;;;63.35;40.42;;;410.50;2355.20;;;;;;5019842;28;20018;-77
2022/10/13 01:59:11;;;;;;;56.30;39.85;;;410.50;2355.20;;;;;;5000445;28;20037;-78
2022/10/13 02:02:06;;;;;;;58.05;40.45;;;410.50;2355.20;;;;;;4997872;28;20034;-78
2022/10/13 02:04:38;;;;;;;74.07;40.42;;;410.50;2355.20;;;;;;5026627;28;20049;-77
2022/10/13 02:07:22;;;;;;;55.45;38.80;;;410.50;2355.20;;;;;;5026034;28;20013;-77
2022/10/13 02:10:10;;;;;;;54.50;38.38;;;410.50;2355.20;;;;;;5000197;28;20030;-78
2022/10/13 02:12:39;;;;;;;58.42;37.80;;;410.50;2355.20;;;;;;5016254;28;20076;-78
2022/10/13 02:15:09;;;;;;;63.45;39.95;;;410.50;2355.20;;;;;;5015806;28;20018;-79
2022/10/13 02:17:35;;;;;;;52.95;38.35;;;410.50;2355.20;;;;;;5006524;28;20026;-79
2022/10/13 02:20:05;;;;;;;61.47;40.63;;;410.50;2355.20;;;;;;5018375;28;20029;-77
2022/10/13 02:22:39;;;;;;;60.20;39.90;;;410.40;2355.20;;;;;;5003699;28;20018;-77
2022/10/13 02:25:06;;;;;;;61.03;40.83;;;410.50;2355.20;;;;;;5021076;28;20475;-78
2022/10/13 02:27:32;;;;;;;60.83;40.20;;;410.40;2355.20;;;;;;5022512;28;20024;-78
2022/10/13 02:29:58;;;;;;;57.00;38.25;;;410.40;2355.20;;;;;;4999446;28;20033;-77
2022/10/13 02:32:24;;;;;;;62.70;41.03;;;410.40;2355.20;;;;;;5020955;28;20025;-78
2022/10/13 02:34:50;;;;;;;60.95;39.88;;;410.30;2355.20;;;;;;5020662;28;20048;-80
2022/10/13 02:37:17;;;;;;;59.75;39.83;;;435.30;2355.20;;;;;;5022414;28;20159;-77
2022/10/13 02:39:42;;;;;;;62.70;39.15;;;410.30;2355.20;;;;;;5021708;28;20564;-77
2022/10/13 02:42:09;;;;;;;58.58;41.30;;;410.50;2355.20;;;;;;5015291;28;20065;-77
2022/10/13 02:44:35;;;;;;;56.05;38.63;;;410.50;2355.20;;;;;;5030785;28;20395;-77
2022/10/13 02:47:00;;;;;;;61.63;40.60;;;410.50;2355.20;;;;;;5025445;28;20026;-76
2022/10/13 02:49:26;;;;;;;55.63;38.45;;;410.50;2355.20;;;;;;5018324;28;20018;-78
2022/10/13 02:51:52;;;;;;;63.75;41.08;;;410.40;2355.20;;;;;;5020558;28;20025;-81
2022/10/13 02:54:18;;;;;;;70.65;42.35;;;410.40;2355.20;;;;;;5017949;28;20096;-80
2022/10/13 02:56:44;;;;;;;55.67;37.58;;;410.30;2355.20;;;;;;5017582;28;20085;-77
2022/10/13 02:59:10;;;;;;;59.53;39.90;;;410.30;2355.20;;;;;;5002961;28;20021;-80
2022/10/13 03:01:40;;;;;;;53.03;36.00;;;410.20;2355.20;;;;;;5002921;28;20049;-77
2022/10/13 03:04:09;;;;;;;58.88;37.92;;;410.20;2355.20;;;;;;5017357;28;20518;-77
2022/10/13 03:06:35;;;;;;;62.20;40.83;;;410.20;2355.20;;;;;;5020751;28;20024;-79
2022/10/13 03:09:02;;;;;;;60.50;40.65;;;410.30;2355.20;;;;;;5025552;28;20026;-78
2022/10/13 03:11:27;;;;;;;60.75;38.25;;;410.30;2355.20;;;;;;5008795;28;20080;-79
2022/10/13 03:13:53;;;;;;;60.45;39.20;;;410.30;2355.20;;;;;;5025333;28;20029;-80
2022/10/13 03:16:19;;;;;;;60.20;39.70;;;410.30;2355.20;;;;;;5005369;28;20022;-79
2022/10/13 03:18:45;;;;;;;53.65;38.60;;;410.20;2355.20;;;;;;5022475;28;20418;-80
2022/10/13 03:21:10;;;;;;;60.33;36.63;;;410.20;2355.20;;;;;;5003042;28;20490;-77
2022/10/13 03:23:36;;;;;;;56.47;39.65;;;410.20;2355.20;;;;;;5019261;28;20614;-77
2022/10/13 03:26:03;;;;;;;58.45;40.13;;;410.30;2355.20;;;;;;5002943;28;20034;-79
2022/10/13 03:28:29;;;;;;;61.22;40.75;;;410.30;2355.20;;;;;;5014856;28;20093;-79
2022/10/13 03:31:04;;;;;;;59.10;39.05;;;410.40;2355.20;;;;;;5019748;28;20037;-80
2022/10/13 03:33:29;;;;;;;59.38;38.92;;;410.30;2355.20;;;;;;5005164;28;20030;-76
2022/10/13 03:36:00;;;;;;;61.13;39.70;;;410.20;2355.20;;;;;;5017586;28;20014;-79
2022/10/13 03:38:27;;;;;;;60.70;40.38;;;410.10;2355.20;;;;;;5023546;28;20032;-77
2022/10/13 03:40:53;;;;;;;62.83;40.58;;;410.00;2355.20;;;;;;5017277;28;20092;-79
2022/10/13 03:43:19;;;;;;;67.30;42.28;;;410.00;2355.20;;;;;;5016689;28;20101;-76
2022/10/13 03:45:57;;;;;;;58.67;40.17;;;410.00;2355.20;;;;;;5022336;28;20026;-79
2022/10/13 03:48:23;;;;;;;59.45;40.17;;;410.10;2355.20;;;;;;5015917;28;20484;-78
2022/10/13 03:50:48;;;;;;;58.20;39.63;;;410.20;2355.20;;;;;;5005341;28;20064;-76
2022/10/13 03:53:14;;;;;;;56.92;39.42;;;410.20;2355.20;;;;;;5009908;28;20033;-77
2022/10/13 03:55:40;;;;;;;59.70;39.25;;;410.30;2355.20;;;;;;5019424;28;20028;-77
2022/10/13 03:58:05;;;;;;;60.35;39.78;;;410.20;2355.20;;;;;;5018819;28;20022;-78
2022/10/13 04:00:33;;;;;;;57.70;38.80;;;410.20;2355.20;;;;;;5017128;28;20483;-77
2022/10/13 04:02:59;;;;;;;63.85;39.40;;;410.20;2355.20;;;;;;5024977;28;20034;-80
2022/10/13 04:05:25;;;;;;;59.35;40.75;;;410.10;2355.20;;;;;;5023062;28;20487;-78
2022/10/13 04:07:50;;;;;;;66.13;40.95;;;410.20;2355.20;;;;;;4998659;28;20105;-77
2022/10/13 04:10:16;;;;;;;64.10;42.15;;;410.20;2355.20;;;;;;5022670;28;20030;-79
2022/10/13 04:12:42;;;;;;;63.88;40.88;;;410.10;2355.20;;;;;;5017019;28;20018;-77
2022/10/13 04:15:08;;;;;;;63.28;40.60;;;410.10;2355.20;;;;;;5014405;28;20064;-79
2022/10/13 04:17:34;;;;;;;64.47;41.08;;;410.20;2355.20;;;;;;5018954;28;20037;-79
2022/10/13 04:20:00;;;;;;;61.83;40.47;;;410.20;2355.20;;;;;;5021684;28;20060;-77
2022/10/13 04:22:25;;;;;;;63.60;40.03;;;410.20;2355.20;;;;;;4998711;28;20080;-79
2022/10/13 04:24:51;;;;;;;58.38;39.90;;;410.10;2355.20;;;;;;5023946;28;20091;-78
2022/10/13 04:27:18;;;;;;;59.00;40.70;;;410.00;2355.20;;;;;;5019814;28;20056;-80
2022/10/13 04:29:44;;;;;;;60.95;41.03;;;410.10;2355.20;;;;;;5019230;28;20044;-76
2022/10/13 04:32:10;;;;;;;58.97;38.88;;;410.10;2355.20;;;;;;5016646;28;20018;-77
2022/10/13 04:34:36;;;;;;;56.88;39.67;;;410.20;2355.20;;;;;;5001110;28;20084;-79
2022/10/13 04:37:01;;;;;;;61.22;39.33;;;410.20;2355.20;;;;;;5015834;28;20392;-78
2022/10/13 04:39:27;;;;;;;69.85;41.30;;;410.20;2355.20;;;;;;5000398;28;20453;-76
2022/10/13 04:41:53;;;;;;;72.22;41.20;;;410.20;2355.20;;;;;;5019431;28;20028;-77
2022/10/13 04:44:18;;;;;;;65.25;43.85;;;410.00;2355.20;;;;;;5008769;28;20034;-79
2022/10/13 04:46:44;;;;;;;59.08;40.80;;;410.00;2355.20;;;;;;5015533;28;20093;-77
2022/10/13 04:49:10;;;;;;;59.25;39.60;;;410.00;2355.20;;;;;;5000164;28;20065;-77
2022/10/13 04:51:36;;;;;;;58.42;39.97;;;410.00;2355.20;;;;;;4997709;28;20021;-76
2022/10/13 04:54:04;;;;;;;60.13;40.95;;;410.00;2355.20;;;;;;5028127;28;20022;-79
2022/10/13 04:56:30;;;;;;;61.42;41.08;;;410.00;2355.20;;;;;;5001718;28;20379;-79
2022/10/13 04:58:56;;;;;;;61.75;40.70;;;410.00;2355.20;;;;;;5003850;28;20022;-79
2022/10/13 05:01:23;;;;;;;60.33;38.97;;;410.00;2355.20;;;;;;4998487;28;20018;-79
2022/10/13 05:03:58;;;;;;;59.60;37.70;;;410.00;2355.20;;;;;;5029388;28;20522;-78
2022/10/13 05:06:27;;;;;;;68.20;39.47;;;410.00;2355.20;;;;;;5018242;28;20356;-78
2022/10/13 05:08:55;;;;;;;64.47;42.13;;;410.00;2355.20;;;;;;5003236;28;20054;-76
2022/10/13 05:11:21;;;;;;;63.10;39.83;;;410.00;2355.20;;;;;;5005586;28;20018;-80
2022/10/13 05:13:47;;;;;;;62.33;41.70;;;410.00;2355.20;;;;;;5015170;28;20375;-79
2022/10/13 05:16:16;;;;;;;64.00;41.10;;;409.80;2355.20;;;;;;5020400;28;20025;-80
2022/10/13 05:18:42;;;;;;;57.15;38.13;;;410.00;2355.20;;;;;;5020703;28;20026;-76
2022/10/13 05:21:10;;;;;;;71.93;42.83;;;410.00;2355.20;;;;;;5020313;28;20025;-75
2022/10/13 05:23:36;;;;;;;56.53;39.20;;;410.00;2355.20;;;;;;5020738;28;20040;-76
2022/10/13 05:26:12;;;;;;;58.65;39.97;;;410.00;2355.20;;;;;;5017472;28;20018;-79
2022/10/13 05:28:39;;;;;;;57.40;41.72;;;410.00;2355.20;;;;;;5020754;28;20041;-76
2022/10/13 05:31:12;;;;;;;59.55;41.95;;;410.00;2355.20;;;;;;5016623;28;20052;-76
2022/10/13 05:33:38;;;;;;;64.10;42.90;;;409.90;2355.20;;;;;;5017731;28;20056;-75
2022/10/13 05:36:06;;;;;;;65.70;42.50;;;410.00;2355.20;;;;;;5018183;28;20029;-75
2022/10/13 05:38:32;;;;;;;70.38;42.05;;;410.00;2355.20;;;;;;5018511;28;20014;-77
2022/10/13 05:41:03;;;;;;;69.38;43.15;;;410.00;2355.20;;;;;;5025799;28;20021;-75
2022/10/13 05:43:30;;;;;;;61.78;41.72;;;410.00;2355.20;;;;;;5031569;28;20029;-76
2022/10/13 05:45:57;;;;;;;62.63;40.78;;;409.90;2355.20;;;;;;5023632;28;20040;-76
2022/10/13 05:48:22;;;;;;;66.97;44.83;;;410.00;2355.20;;;;;;5020757;28;20217;-76
2022/10/13 05:50:48;;;;;;;63.63;43.70;;;410.00;2355.20;;;;;;5031147;28;20538;-76
2022/10/13 05:53:14;;;;;;;63.80;43.53;;;410.00;2355.20;;;;;;5017818;28;20022;-76
2022/10/13 05:55:40;;;;;;;65.47;43.20;;;410.00;2355.20;;;;;;5014298;28;20022;-76
2022/10/13 05:58:06;;;;;;;59.55;40.75;;;410.00;2355.20;;;;;;5014637;28;20029;-76
2022/10/13 06:00:31;;;;;;;61.97;42.53;;;410.10;2355.20;;;;;;5017359;28;20033;-75
2022/10/13 06:03:20;;;;;;;62.78;41.60;;;410.20;2355.20;;;;;;5024875;28;20205;-76
2022/10/13 06:05:48;;;;;;;62.85;41.45;;;410.20;2355.20;;;;;;5014521;28;20571;-75
2022/10/13 06:08:15;;;;;;;57.42;39.30;;;410.30;2355.20;;;;;;5045882;28;20093;-76
2022/10/13 06:10:41;;;;;;;62.80;40.88;;;410.30;2355.20;;;;;;5023115;28;20045;-75
2022/10/13 06:13:08;;;;;;;64.63;40.45;;;410.30;2355.20;;;;;;5023068;28;20034;-77
2022/10/13 06:15:34;;;;;;;68.05;42.63;;;410.40;2355.20;;;;;;5020644;28;20105;-76
2022/10/13 06:18:00;;;;;;;68.55;41.30;;;410.50;2355.20;;;;;;5031871;28;20049;-74
2022/10/13 06:20:26;;;;;;;61.10;41.45;;;410.50;2355.20;;;;;;5051929;28;20091;-79
2022/10/13 06:22:54;;;;;;;59.53;41.42;;;410.50;2355.20;;;;;;5037432;28;20080;-74
2022/10/13 06:25:20;;;;;;;57.03;40.88;;;410.50;2355.20;;;;;;5044699;28;20044;-75
2022/10/13 06:27:46;;;;;;;66.68;42.40;;;410.50;2355.20;;;;;;5031531;28;20526;-74
2022/10/13 06:30:11;;;;;;;63.40;41.30;;;435.20;2355.20;;;;;;5045977;28;20033;-76
2022/10/13 06:32:37;;;;;;;57.58;38.85;;;435.30;2355.20;;;;;;5042812;28;20050;-75
2022/10/13 06:35:04;;;;;;;64.00;41.30;;;435.30;2355.20;;;;;;5016550;28;20037;-76
2022/10/13 06:37:29;;;;;;;64.10;39.83;;;435.30;2355.20;;;;;;5014124;28;20022;-75
2022/10/13 06:39:55;;;;;;;64.15;41.00;;;435.30;2355.20;;;;;;5018740;28;20463;-74
2022/10/13 06:42:21;;;;;;;58.55;41.03;;;435.40;2355.20;;;;;;5027907;28;20446;-76
2022/10/13 06:44:47;;;;;;;61.28;41.40;;;435.50;2355.20;;;;;;5024590;28;20550;-75
2022/10/13 06:47:13;;;;;;;55.10;38.83;;;435.50;2355.20;;;;;;5014047;28;20064;-75
2022/10/13 06:49:39;;;;;;;62.53;39.35;;;435.50;2355.20;;;;;;5018297;28;20364;-75
2022/10/13 06:52:05;;;;;;;61.67;38.88;;;435.60;2355.20;;;;;;5017570;28;20033;-75
2022/10/13 06:54:31;;;;;;;60.83;37.80;;;435.60;2355.20;;;;;;5028634;28;20021;-74
2022/10/13 06:56:56;;;;;;;52.47;35.95;;;435.70;2355.20;;;;;;5050754;28;20032;-75
2022/10/13 06:59:22;;;;;;;49.10;36.45;;;435.70;2355.20;;;;;;5035707;28;20479;-76
2022/10/13 07:01:50;;;;;;;52.22;36.10;;;435.70;2355.20;;;;;;5015738;28;20040;-75
2022/10/13 07:04:16;;;;;;;62.53;37.90;;;435.80;2355.20;;;;;;5004636;28;20053;-76
2022/10/13 07:06:42;;;;;;;58.17;38.22;;;435.80;2355.20;;;;;;5008743;28;20022;-76
2022/10/13 07:09:08;;;;;;;52.95;35.25;;;435.80;2355.20;;;;;;5035190;28;20103;-76
2022/10/13 07:11:34;;;;;;;52.92;35.47;;;435.90;2355.20;;;;;;5047383;28;20021;-76
2022/10/13 07:14:00;;;;;;;52.20;32.33;;;435.80;2355.20;;;;;;5054850;28;20108;-76
2022/10/13 07:16:26;;;;;;;50.15;33.17;;;435.90;2355.20;;;;;;5026543;28;20108;-75
2022/10/13 07:18:52;;;;;;;49.90;31.23;;;435.90;2355.20;;;;;;5048839;28;20051;-76
2022/10/13 07:21:17;;;;;;;48.17;31.38;;;436.00;2355.20;;;;;;5034731;28;20048;-76
2022/10/13 07:23:43;;;;;;;51.17;31.45;;;436.10;2355.20;;;;;;5038183;28;20088;-75
2022/10/13 07:26:11;;;;;;;47.90;31.88;;;460.80;2380.80;;;;;;5022074;28;20375;-74
2022/10/13 07:28:37;;;;;;;42.50;28.98;;;460.80;2380.80;;;;;;5022381;28;20026;-75
2022/10/13 07:31:15;;;;;;;42.63;29.30;;;460.80;2380.80;;;;;;5016855;28;20026;-75
2022/10/13 07:33:43;;;;;;;45.13;28.65;;;460.80;2380.80;;;;;;5025137;28;20026;-75
2022/10/13 07:36:10;;;;;;;45.63;28.50;;;460.80;2380.80;;;;;;5019624;28;20353;-75
2022/10/13 07:38:36;;;;;;;42.65;30.23;;;460.80;2380.80;;;;;;5022013;28;20088;-76
2022/10/13 07:41:04;;;;;;;45.22;29.02;;;460.80;2380.80;;;;;;5022125;28;20505;-75
2022/10/13 07:43:30;;;;;;;44.10;28.25;;;460.90;2380.80;;;;;;5015145;28;20148;-75
2022/10/13 07:45:58;;;;;;;42.53;27.33;;;461.00;2380.80;;;;;;5053433;28;20031;-74
2022/10/13 07:48:25;;;;;;;34.72;24.70;;;461.00;2380.80;;;;;;5054481;28;20016;-75
2022/10/13 07:50:50;;;;;;;35.03;23.55;;;461.00;2380.80;;;;;;5054042;28;20031;-75
2022/10/13 07:53:16;;;;;;;36.65;24.48;;;461.10;2380.80;;;;;;5044539;28;20021;-77
2022/10/13 07:55:42;;;;;;;37.72;23.65;;;461.20;2380.80;;;;;;5050059;28;20021;-76
2022/10/13 07:58:08;;;;;;;36.00;23.58;;;461.30;2380.80;;;;;;5045965;28;20390;-74
2022/10/13 08:00:34;;;;;;;39.33;23.92;;;461.30;2380.80;;;;;;5030322;28;20018;-74
2022/10/13 08:03:00;;;;;;;37.22;23.70;;;461.30;2380.80;;;;;;5021636;28;20543;-74
2022/10/13 08:05:26;;;;;;;35.75;22.67;;;461.40;2380.80;;;;;;5021133;28;20050;-74
2022/10/13 08:07:51;;;;;;;38.00;23.85;;;461.40;2380.80;;;;;;5027887;28;20025;-74
2022/10/13 08:10:17;;;;;;;38.10;24.30;;;461.60;2380.80;;;;;;5034220;28;20036;-74
2022/10/13 08:12:43;;;;;;;38.20;24.60;;;461.70;2380.80;;;;;;5047340;28;20071;-74
2022/10/13 08:15:09;;;;;;;31.90;22.42;;;461.70;2380.80;;;;;;5030484;28;20025;-75
2022/10/13 08:17:35;;;;;;;28.95;20.70;;;486.40;2380.80;;;;;;5026727;28;20017;-74
2022/10/13 08:20:02;;;;;;;33.00;21.80;;;486.50;2380.80;;;;;;5033922;28;20100;-73
2022/10/13 08:22:28;;;;;;;33.28;22.58;;;486.40;2380.80;;;;;;5037002;28;20032;-75
2022/10/13 08:24:54;;;;;;;31.80;21.38;;;486.40;2380.80;;;;;;5035274;28;20049;-74
2022/10/13 08:27:23;;;;;;;34.45;22.30;;;486.40;2380.80;;;;;;5051742;28;20112;-75
2022/10/13 08:29:48;;;;;;;31.58;21.30;;;486.40;2380.80;;;;;;5041749;28;20025;-73
2022/10/13 08:32:14;;;;;;;32.28;21.42;;;486.40;2380.80;;;;;;5053179;28;20433;-75
2022/10/13 08:34:40;;;;;;;33.60;22.33;;;486.40;2380.80;;;;;;5053175;28;20040;-74
2022/10/13 08:37:11;;;;;;;36.75;21.25;;;486.50;2380.80;;;;;;5053562;28;20467;-74
2022/10/13 08:39:37;;;;;;;26.58;19.13;;;486.60;2380.80;;;;;;5053123;28;20029;-74
2022/10/13 08:42:11;;;;;;;36.33;20.88;;;486.70;2380.80;;;;;;5021409;28;20036;-82
2022/10/13 08:44:40;;;;;;;33.55;19.63;;;486.70;2380.80;;;;;;5043635;28;20037;-76
2022/10/13 08:47:26;;;;;;;32.83;19.30;;;486.60;2380.80;;;;;;5049455;28;20119;-73
2022/10/13 08:50:01;;;;;;;25.67;16.92;;;486.60;2380.80;;;;;;5053404;28;20021;-75
2022/10/13 08:52:40;;;;;;;30.13;17.65;;;486.60;2380.80;;;;;;5052922;28;20025;-75
2022/10/13 08:55:30;;;;;;;26.23;16.55;;;486.60;2380.80;;;;;;5053277;28;20031;-74
2022/10/13 08:57:57;;;;;;;23.85;16.75;;;486.70;2380.80;;;;;;5053309;28;20506;-74
2022/10/13 09:00:23;;;;;;;24.83;18.80;;;486.70;2380.80;;;;;;5052822;28;20028;-73
2022/10/13 09:02:49;;;;;;;26.38;17.65;;;486.80;2380.80;;;;;;5023962;28;20037;-80
2022/10/13 09:05:35;;;;;;;26.55;18.00;;;487.00;2380.80;;;;;;5032880;28;20479;-74
2022/10/13 09:08:03;;;;;;;25.23;17.40;;;487.10;2380.80;;;;;;5039797;28;20479;-81
2022/10/13 09:10:28;;;;;;;23.55;18.05;;;487.30;2380.80;;;;;;5053065;28;20029;-74
2022/10/13 09:12:55;;;;;;;23.92;17.30;;;512.00;2380.80;;;;;;5052554;28;20091;-79
2022/10/13 09:15:20;;;;;;;28.48;18.67;;;512.10;2380.80;;;;;;5053191;28;20021;-74
2022/10/13 09:18:08;;;;;;;25.92;18.20;;;512.20;2380.80;;;;;;5052612;28;20020;-75
2022/10/13 09:20:34;;;;;;;26.48;17.52;;;512.40;2380.80;;;;;;5052738;28;20025;-76
2022/10/13 09:23:18;;;;;;;29.08;17.17;;;512.60;2380.80;;;;;;5036384;28;20030;-74
2022/10/13 09:25:49;;;;;;;26.05;16.67;;;512.80;2380.80;;;;;;5020092;28;20022;-74
2022/10/13 09:28:25;;;;;;;30.38;18.27;;;512.60;2380.80;;;;;;5015375;28;20022;-73
2022/10/13 09:31:04;;;;;;;;;;;512.60;2380.80;;;;;;5006241;28;20044;-73
2022/10/13 09:33:34;;;;;;;21.98;16.65;;;512.60;2380.80;;;;;;5032380;28;20285;-74
2022/10/13 09:36:05;;;;;;;23.80;15.68;;;512.60;2380.80;;;;;;5006661;28;20574;-75
2022/10/13 09:38:31;;;;;;;25.90;17.00;;;512.40;2380.80;;;;;;5021124;28;20044;-75
2022/10/13 09:41:05;;;;;;;31.13;17.02;;;512.60;2380.80;;;;;;5023678;28;20022;-74
2022/10/13 09:43:58;;;;;;;28.63;17.35;;;512.80;2380.80;;;;;;5046788;28;20032;-74
2022/10/13 09:46:37;;;;;;;26.42;17.30;;;512.80;2380.80;;;;;;5038328;28;20120;-74
2022/10/13 09:49:30;;;;;;;28.67;16.27;;;512.80;2380.80;;;;;;5032043;28;20104;-78
2022/10/13 09:52:06;;;;;;;28.20;17.27;;;512.80;2380.80;;;;;;5046011;28;20394;-74
2022/10/13 09:54:51;;;;;;;21.42;14.43;;;512.90;2380.80;;;;;;5019886;28;20018;-74
2022/10/13 09:57:17;;;;;;;27.77;16.02;;;512.90;2380.80;;;;;;5047841;28;20048;-80
2022/10/13 10:00:06;;;;;;;20.48;15.23;;;537.60;2406.40;;;;;;5043931;28;20483;-73
2022/10/13 10:02:59;;;;;;;32.35;16.30;;;537.60;2406.40;;;;;;5031275;28;20072;-74
2022/10/13 10:05:27;;;;;;;32.92;16.77;;;537.90;2406.40;;;;;;5032307;28;20049;-73
2022/10/13 10:07:59;;;;;;;26.75;15.40;;;538.00;2406.40;;;;;;5031862;28;20434;-76
2022/10/13 10:10:34;;;;;;;22.70;15.27;;;538.20;2406.40;;;;;;5032225;28;20017;-74
2022/10/13 10:13:02;;;;;;;19.10;14.23;;;538.50;2406.40;;;;;;5031700;28;20023;-77
2022/10/13 10:16:01;;;;;;;21.38;15.85;;;563.20;2432.00;;;;;;5031907;28;20411;-75
2022/10/13 10:18:51;;;;;;;20.65;13.63;;;563.40;2432.00;;;;;;5020433;28;20056;-74
2022/10/13 10:21:25;;;;;;;26.70;13.05;;;538.50;2406.40;;;;;;5031862;28;20102;-81
2022/10/13 10:24:32;;;;;;;18.45;12.77;;;538.30;2406.40;;;;;;5022219;28;20038;-74
2022/10/13 10:27:05;;;;;;;20.52;14.00;;;538.20;2406.40;;;;;;4967772;28;20382;-74
2022/10/13 10:29:52;;;;;;;22.80;13.65;;;538.10;2406.40;;;;;;4959034;28;20039;-75
2022/10/13 10:32:24;;;;;;;22.02;14.10;;;538.50;2406.40;;;;;;4960015;28;20027;-75
2022/10/13 10:34:54;;;;;;;21.08;13.63;;;538.30;2406.40;;;;;;4957471;28;20035;-75
2022/10/13 10:37:34;;;;;;;19.17;13.20;;;538.50;2406.40;;;;;;4957625;28;20461;-75
2022/10/13 10:40:18;;;;;;;17.92;12.85;;;538.50;2406.40;;;;;;4953877;28;20036;-76
2022/10/13 10:42:59;;;;;;;20.60;13.07;;;563.50;2432.00;;;;;;4959541;28;20386;-74
2022/10/13 10:45:29;;;;;;;23.98;13.85;;;563.80;2432.00;;;;;;4954065;28;20038;-75
2022/10/13 10:48:01;;;;;;;23.67;12.85;;;563.90;2432.00;;;;;;4957116;28;20113;-74
2022/10/13 10:50:30;;;;;;;23.77;13.57;;;563.80;2432.00;;;;;;4954262;28;20024;-75
2022/10/13 10:53:15;;;;;;;24.40;14.02;;;564.00;2432.00;;;;;;4957174;28;20071;-75
2022/10/13 10:55:53;;;;;;;17.73;12.57;;;588.80;2432.00;;;;;;4939120;28;20031;-83
2022/10/13 10:58:41;;;;;;;22.20;12.10;;;588.90;2432.00;;;;;;4960413;28;20050;-75
2022/10/13 11:01:33;;;;;;;16.48;12.05;;;589.00;2432.00;;;;;;4978087;28;20511;-76
2022/10/13 11:04:23;;;;;;;20.27;13.80;;;589.30;2432.00;;;;;;4954759;28;20505;-76
2022/10/13 11:06:49;;;;;;;18.23;12.93;;;589.50;2432.00;;;;;;4955062;28;20051;-75
2022/10/13 11:09:40;;;;;;;24.05;13.55;;;589.30;2432.00;;;;;;4938933;29;20086;-76
2022/10/13 11:12:18;;;;;;;21.52;13.05;;;589.40;2432.00;;;;;;4954955;29;20139;-75
2022/10/13 11:14:53;;;;;;;21.65;13.57;;;589.70;2304.00;;;;;;4954820;29;20071;-76
2022/10/13 11:17:36;;;;;;;27.02;13.65;;;614.40;2406.40;;;;;;4954675;28;20054;-82
2022/10/13 11:20:25;;;;;;;22.50;14.23;;;589.60;2380.80;;;;;;4954612;29;20119;-76
2022/10/13 11:22:59;;;;;;;15.95;12.23;;;589.50;2406.40;;;;;;4954993;29;20110;-75
2022/10/13 11:25:33;;;;;;;22.83;14.20;;;589.30;2432.00;;;;;;4954475;28;20035;-75
2022/10/13 11:27:59;;;;;;;20.42;12.27;;;589.30;2432.00;;;;;;4954448;28;20058;-76
2022/10/13 11:31:03;;;;;;;23.85;14.38;;;589.30;2432.00;;;;;;4954409;28;20525;-77
2022/10/13 11:33:37;;;;;;;27.95;12.80;;;589.60;2432.00;;;;;;4916516;29;20063;-76
2022/10/13 11:36:30;;;;;;;20.65;13.27;;;589.50;2432.00;;;;;;4916222;29;20043;-76
2022/10/13 11:39:19;;;;;;;17.35;13.35;;;589.20;2432.00;;;;;;4915490;29;20032;-76
2022/10/13 11:42:11;;;;;;;25.17;12.93;;;589.50;2432.00;;;;;;4931103;29;20107;-77
2022/10/13 11:44:54;;;;;;;27.75;13.20;;;589.00;2432.00;;;;;;4927349;29;20040;-75
2022/10/13 11:48:01;;;;;;;18.52;12.45;;;564.10;2432.00;;;;;;4928525;29;20660;-76
2022/10/13 11:50:43;;;;;;;24.75;13.88;;;563.90;2432.00;;;;;;4928779;29;20115;-76
2022/10/13 11:53:26;;;;;;;24.60;13.77;;;564.10;2432.00;;;;;;4931151;29;20407;-76
2022/10/13 11:55:58;;;;;;;24.90;14.30;;;564.00;2432.00;;;;;;4928656;29;20118;-75
2022/10/13 11:58:29;;;;;;;19.95;13.80;;;564.10;2432.00;;;;;;4925443;29;20024;-75
2022/10/13 12:00:58;;;;;;;22.70;14.43;;;589.00;2432.00;;;;;;4926537;29;20039;-80
2022/10/13 12:03:28;;;;;;;19.05;15.05;;;589.30;2432.00;;;;;;4928545;29;20056;-76
2022/10/13 12:05:59;;;;;;;22.17;13.88;;;588.80;2432.00;;;;;;4926859;29;20059;-75
2022/10/13 12:08:27;;;;;;;24.70;14.23;;;588.80;2432.00;;;;;;4955594;28;20030;-76
2022/10/13 12:10:56;;;;;;;20.48;13.73;;;589.00;2432.00;;;;;;5045945;28;20525;-75
2022/10/13 12:13:30;;;;;;;24.27;14.32;;;588.80;2432.00;;;;;;5054095;28;20045;-76
2022/10/13 12:16:05;;;;;;;17.00;12.65;;;564.10;2432.00;;;;;;5053831;28;20096;-77
2022/10/13 12:18:39;;;;;;;22.02;13.70;;;588.90;2432.00;;;;;;5031293;28;20117;-76